Time;durP1;ratioP1;P1;durP2;ratioP2;P2;SDS_P1;SDS_P2;PMS_P1;PMS_P2;Temp;Humidity;BMP_temperature;BMP_pressure;BME280_temperature;BME280_humidity;BME280_pressure;Samples;Min_cycle;Max_cycle;Signal;HPM_P1;HPM_P2
2024/01/14 00:00:17;;;;;;;57.20;23.50;;;;;;;;;;5027487;28;20374;-93
2024/01/14 00:02:43;;;;;;;60.17;24.53;;;;;;;;;;5027166;28;20029;-92
2024/01/14 00:05:09;;;;;;;54.43;23.13;;;;;;;;;;5020154;28;20288;-92
2024/01/14 00:07:36;;;;;;;58.20;24.73;;;;;;;;;;5013475;28;20461;-92
2024/01/14 00:10:03;;;;;;;52.67;22.63;;;;;;;;;;5010607;28;20276;-93
2024/01/14 00:12:29;;;;;;;59.30;24.07;;;;;;;;;;5006003;28;20608;-90
2024/01/14 00:14:55;;;;;;;56.73;23.50;;;;;;;;;;5006550;28;20272;-92
2024/01/14 00:17:23;;;;;;;61.23;24.23;;;;;;;;;;5011216;28;20273;-90
2024/01/14 00:19:52;;;;;;;54.20;21.97;;;;;;;;;;5011362;28;21749;-90
2024/01/14 00:22:18;;;;;;;53.00;22.50;;;;;;;;;;5019486;28;20275;-91
2024/01/14 00:24:44;;;;;;;51.63;22.07;;;;;;;;;;5009838;28;20315;-90
2024/01/14 00:27:10;;;;;;;52.17;22.43;;;;;;;;;;4998917;28;20280;-87
2024/01/14 00:29:36;;;;;;;54.40;22.60;;;;;;;;;;5014108;28;20360;-90
2024/01/14 00:32:02;;;;;;;63.70;23.13;;;;;;;;;;5016569;28;20834;-91
2024/01/14 00:34:28;;;;;;;52.87;22.50;;;;;;;;;;5010632;28;20489;-91
2024/01/14 00:36:54;;;;;;;48.37;21.60;;;;;;;;;;5012957;28;20287;-90
2024/01/14 00:39:21;;;;;;;56.03;22.37;;;;;;;;;;5013602;28;20038;-92
2024/01/14 00:41:47;;;;;;;48.33;21.20;;;;;;;;;;5012552;28;20030;-93
2024/01/14 00:44:15;;;;;;;56.43;22.93;;;;;;;;;;5012515;28;20372;-87
2024/01/14 00:46:41;;;;;;;49.83;20.93;;;;;;;;;;5027505;28;21025;-91
2024/01/14 00:49:08;;;;;;;50.33;21.23;;;;;;;;;;5023683;28;20280;-88
2024/01/14 00:51:34;;;;;;;44.90;20.30;;;;;;;;;;5007869;28;20061;-83
2024/01/14 00:54:00;;;;;;;51.27;20.60;;;;;;;;;;5006745;28;20295;-90
2024/01/14 00:56:26;;;;;;;50.63;22.07;;;;;;;;;;5009025;28;20300;-93
2024/01/14 00:58:52;;;;;;;54.47;22.73;;;;;;;;;;5013479;28;20042;-89
2024/01/14 01:01:18;;;;;;;49.70;21.27;;;;;;;;;;5011224;28;20370;-92
2024/01/14 01:03:44;;;;;;;56.60;22.70;;;;;;;;;;5009676;28;20108;-90
2024/01/14 01:06:11;;;;;;;49.20;20.30;;;;;;;;;;5007941;28;20281;-89
2024/01/14 01:08:38;;;;;;;59.10;22.70;;;;;;;;;;5009370;28;20122;-87
2024/01/14 01:11:05;;;;;;;48.90;22.30;;;;;;;;;;5009527;28;20355;-93
2024/01/14 01:13:37;;;;;;;46.40;20.77;;;;;;;;;;5009830;28;20319;-92
2024/01/14 01:16:06;;;;;;;53.30;23.33;;;;;;;;;;5024707;28;20272;-91
2024/01/14 01:18:32;;;;;;;50.93;21.50;;;;;;;;;;5008207;28;20367;-89
2024/01/14 01:20:57;;;;;;;54.97;22.47;;;;;;;;;;5029753;28;20505;-91
2024/01/14 01:23:23;;;;;;;50.67;20.13;;;;;;;;;;5007175;28;20037;-88
2024/01/14 01:25:50;;;;;;;55.03;22.03;;;;;;;;;;5026341;28;20029;-89
2024/01/14 01:28:19;;;;;;;48.57;20.73;;;;;;;;;;5022795;28;20041;-91
2024/01/14 01:30:48;;;;;;;46.57;19.33;;;;;;;;;;5012957;28;20648;-91
2024/01/14 01:33:14;;;;;;;48.60;20.57;;;;;;;;;;5007045;28;20269;-87
2024/01/14 01:35:42;;;;;;;44.43;19.33;;;;;;;;;;5008853;28;20287;-91
2024/01/14 01:38:08;;;;;;;51.73;21.57;;;;;;;;;;5013568;28;20349;-90
2024/01/14 01:40:34;;;;;;;49.27;20.20;;;;;;;;;;5012006;28;20679;-90
2024/01/14 01:43:00;;;;;;;45.90;20.73;;;;;;;;;;5010642;28;20307;-86
2024/01/14 01:45:26;;;;;;;47.93;20.00;;;;;;;;;;5010021;28;20038;-89
2024/01/14 01:47:52;;;;;;;46.90;19.70;;;;;;;;;;5012513;28;20290;-91
2024/01/14 01:50:19;;;;;;;44.83;19.17;;;;;;;;;;5013026;28;20268;-86
2024/01/14 01:52:45;;;;;;;42.67;18.00;;;;;;;;;;5023356;28;20033;-85
2024/01/14 01:55:11;;;;;;;43.50;19.63;;;;;;;;;;5009060;28;20285;-88
2024/01/14 01:57:37;;;;;;;49.07;20.13;;;;;;;;;;5013263;28;20276;-89
2024/01/14 02:00:04;;;;;;;43.03;18.90;;;;;;;;;;5008881;28;20280;-90
2024/01/14 02:02:30;;;;;;;43.10;17.70;;;;;;;;;;5009299;28;20280;-88
2024/01/14 02:04:56;;;;;;;46.30;18.73;;;;;;;;;;5009013;28;20763;-88
2024/01/14 02:07:22;;;;;;;41.17;18.60;;;;;;;;;;5009237;28;20815;-87
2024/01/14 02:09:48;;;;;;;43.70;19.20;;;;;;;;;;4995001;28;20296;-87
2024/01/14 02:12:14;;;;;;;46.73;19.57;;;;;;;;;;5025600;28;20269;-92
2024/01/14 02:14:43;;;;;;;48.50;20.00;;;;;;;;;;5010068;28;20358;-89
2024/01/14 02:17:09;;;;;;;43.80;18.60;;;;;;;;;;5007469;28;20276;-90
2024/01/14 02:19:35;;;;;;;40.83;17.97;;;;;;;;;;5012807;28;20716;-87
2024/01/14 02:22:15;;;;;;;43.53;18.73;;;;;;;;;;5010737;28;20026;-85
2024/01/14 02:24:41;;;;;;;44.27;18.33;;;;;;;;;;5011135;28;20314;-88
2024/01/14 02:27:07;;;;;;;43.03;17.17;;;;;;;;;;5010715;28;20364;-91
2024/01/14 02:29:33;;;;;;;45.73;19.87;;;;;;;;;;5011836;28;20283;-89
2024/01/14 02:31:59;;;;;;;43.50;18.73;;;;;;;;;;5009245;28;20279;-90
2024/01/14 02:34:25;;;;;;;44.30;17.97;;;;;;;;;;5011330;28;20287;-87
2024/01/14 02:36:51;;;;;;;39.93;18.07;;;;;;;;;;5009295;28;20454;-92
2024/01/14 02:39:20;;;;;;;41.63;17.37;;;;;;;;;;5009352;28;20280;-89
2024/01/14 02:41:46;;;;;;;37.13;17.13;;;;;;;;;;5009050;28;20026;-94
2024/01/14 02:44:12;;;;;;;41.23;17.60;;;;;;;;;;5010458;28;20430;-92
2024/01/14 02:46:38;;;;;;;45.07;17.37;;;;;;;;;;5011573;28;20037;-88
2024/01/14 02:49:04;;;;;;;39.57;16.97;;;;;;;;;;5009813;28;20417;-86
2024/01/14 02:51:32;;;;;;;42.07;18.10;;;;;;;;;;5009038;28;20300;-87
2024/01/14 02:54:00;;;;;;;37.90;15.10;;;;;;;;;;5009444;28;20029;-89
2024/01/14 02:56:26;;;;;;;38.00;17.43;;;;;;;;;;5012395;28;20276;-92
2024/01/14 02:58:52;;;;;;;35.77;15.40;;;;;;;;;;5010077;28;20284;-87
2024/01/14 03:01:18;;;;;;;36.20;16.33;;;;;;;;;;5009815;28;20031;-90
2024/01/14 03:03:45;;;;;;;40.43;16.60;;;;;;;;;;5011185;28;20096;-85
2024/01/14 03:06:11;;;;;;;35.17;16.73;;;;;;;;;;5030153;28;20076;-91
2024/01/14 03:08:37;;;;;;;34.97;15.97;;;;;;;;;;5011281;28;20290;-88
2024/01/14 03:11:04;;;;;;;35.10;15.63;;;;;;;;;;5029628;28;20276;-90
2024/01/14 03:13:36;;;;;;;32.63;15.00;;;;;;;;;;5012516;28;20362;-89
2024/01/14 03:16:02;;;;;;;36.90;16.00;;;;;;;;;;5013044;28;20335;-86
2024/01/14 03:18:28;;;;;;;33.23;14.53;;;;;;;;;;5031633;28;20033;-89
2024/01/14 03:20:54;;;;;;;34.43;14.60;;;;;;;;;;5013050;28;20422;-91
2024/01/14 03:23:23;;;;;;;32.73;14.53;;;;;;;;;;5013306;28;20049;-89
2024/01/14 03:25:49;;;;;;;32.30;14.73;;;;;;;;;;5015908;28;20025;-90
2024/01/14 03:28:15;;;;;;;31.73;15.27;;;;;;;;;;5013277;28;20283;-92
2024/01/14 03:30:41;;;;;;;35.03;15.47;;;;;;;;;;5009158;28;20030;-91
2024/01/14 03:33:07;;;;;;;33.20;15.03;;;;;;;;;;5017071;28;20360;-85
2024/01/14 03:35:33;;;;;;;31.97;14.50;;;;;;;;;;5010428;28;20304;-87
2024/01/14 03:37:59;;;;;;;32.77;15.30;;;;;;;;;;5011712;28;20319;-89
2024/01/14 03:40:25;;;;;;;35.03;15.53;;;;;;;;;;5015399;28;20033;-81
2024/01/14 03:42:51;;;;;;;35.73;14.97;;;;;;;;;;5010390;28;20287;-92
2024/01/14 03:45:17;;;;;;;31.77;13.77;;;;;;;;;;5009231;28;20327;-90
2024/01/14 03:47:45;;;;;;;35.90;15.37;;;;;;;;;;5015434;28;20287;-85
2024/01/14 03:50:11;;;;;;;32.03;13.53;;;;;;;;;;5010554;28;20879;-91
2024/01/14 03:52:37;;;;;;;30.03;13.70;;;;;;;;;;5013541;28;20279;-91
2024/01/14 03:55:03;;;;;;;34.63;13.73;;;;;;;;;;5013756;28;20120;-87
2024/01/14 03:57:29;;;;;;;33.73;14.83;;;;;;;;;;5016870;28;20289;-91
2024/01/14 03:59:55;;;;;;;29.27;12.60;;;;;;;;;;5012069;28;20724;-87
2024/01/14 04:02:21;;;;;;;30.93;13.30;;;;;;;;;;5031674;28;20346;-89
2024/01/14 04:04:48;;;;;;;33.77;13.60;;;;;;;;;;5027729;28;20276;-90
2024/01/14 04:07:13;;;;;;;27.87;13.00;;;;;;;;;;5013013;28;20280;-88
2024/01/14 04:09:39;;;;;;;32.80;14.23;;;;;;;;;;5009990;28;21730;-92
2024/01/14 04:12:06;;;;;;;31.33;15.07;;;;;;;;;;5008134;28;20025;-89
2024/01/14 04:14:32;;;;;;;34.47;14.17;;;;;;;;;;5016693;28;20033;-91
2024/01/14 04:16:58;;;;;;;31.03;14.97;;;;;;;;;;5011266;28;20291;-91
2024/01/14 04:19:24;;;;;;;33.77;14.13;;;;;;;;;;5028403;28;20025;-92
2024/01/14 04:21:50;;;;;;;38.07;14.90;;;;;;;;;;5010375;28;20731;-86
2024/01/14 04:24:16;;;;;;;33.17;14.30;;;;;;;;;;5014168;28;20103;-92
2024/01/14 04:26:42;;;;;;;31.50;14.43;;;;;;;;;;5012450;28;20764;-89
2024/01/14 04:29:08;;;;;;;29.53;12.77;;;;;;;;;;5008951;28;20030;-87
2024/01/14 04:31:35;;;;;;;36.53;15.27;;;;;;;;;;5026321;28;20037;-89
2024/01/14 04:34:03;;;;;;;29.50;13.70;;;;;;;;;;5002524;28;20277;-92
2024/01/14 04:36:29;;;;;;;36.93;15.43;;;;;;;;;;5006480;28;20072;-91
2024/01/14 04:38:55;;;;;;;29.67;13.60;;;;;;;;;;5003019;28;20273;-89
2024/01/14 04:41:21;;;;;;;32.60;14.67;;;;;;;;;;4987828;28;20273;-91
2024/01/14 04:43:47;;;;;;;31.77;13.43;;;;;;;;;;5002817;28;20270;-92
2024/01/14 04:46:13;;;;;;;31.83;14.27;;;;;;;;;;4995905;28;20776;-89
2024/01/14 04:48:39;;;;;;;26.93;11.90;;;;;;;;;;4989980;28;20134;-93
2024/01/14 04:51:05;;;;;;;30.13;13.07;;;;;;;;;;4996406;28;20414;-92
2024/01/14 04:53:34;;;;;;;30.13;12.77;;;;;;;;;;5001970;28;20029;-92
2024/01/14 04:56:00;;;;;;;29.60;13.17;;;;;;;;;;4982878;28;20265;-94
2024/01/14 04:58:26;;;;;;;32.80;13.67;;;;;;;;;;4990026;28;20280;-94
2024/01/14 05:00:52;;;;;;;27.57;13.07;;;;;;;;;;4976984;28;20050;-89
2024/01/14 05:03:19;;;;;;;37.77;14.20;;;;;;;;;;4988120;28;20181;-92
2024/01/14 05:05:45;;;;;;;31.10;13.60;;;;;;;;;;4991301;28;20324;-93
2024/01/14 05:08:10;;;;;;;28.57;12.57;;;;;;;;;;4996303;28;20698;-92
2024/01/14 05:10:36;;;;;;;25.97;12.40;;;;;;;;;;4980173;28;20022;-90
2024/01/14 05:13:02;;;;;;;24.87;12.30;;;;;;;;;;4996227;28;20118;-91
2024/01/14 05:15:28;;;;;;;25.30;10.97;;;;;;;;;;4976013;28;20255;-95
2024/01/14 05:17:57;;;;;;;28.07;11.87;;;;;;;;;;4976132;28;20279;-92
2024/01/14 05:20:23;;;;;;;27.73;12.77;;;;;;;;;;4969309;28;20034;-92
2024/01/14 05:22:50;;;;;;;27.57;12.13;;;;;;;;;;4960507;28;20273;-93
2024/01/14 05:25:16;;;;;;;29.37;12.43;;;;;;;;;;4970182;28;20456;-93
2024/01/14 05:27:42;;;;;;;31.17;13.47;;;;;;;;;;4953572;28;20271;-92
2024/01/14 05:30:08;;;;;;;25.07;11.63;;;;;;;;;;5007614;28;20046;-92
2024/01/14 05:32:34;;;;;;;27.30;13.23;;;;;;;;;;4987230;28;20022;-92
2024/01/14 05:35:01;;;;;;;25.93;11.43;;;;;;;;;;5012496;28;20604;-90
2024/01/14 05:37:29;;;;;;;26.03;9.73;;;;;;;;;;5021986;28;20060;-92
2024/01/14 05:39:55;;;;;;;23.90;11.23;;;;;;;;;;5012307;28;20308;-93
2024/01/14 05:42:24;;;;;;;29.30;12.53;;;;;;;;;;4998453;28;20296;-93
2024/01/14 05:44:50;;;;;;;32.17;13.10;;;;;;;;;;4992996;28;20030;-94
2024/01/14 05:47:16;;;;;;;25.17;11.87;;;;;;;;;;5004367;28;20311;-91
2024/01/14 05:49:42;;;;;;;27.07;12.47;;;;;;;;;;5019071;28;20272;-89
2024/01/14 05:52:08;;;;;;;26.20;11.03;;;;;;;;;;5019066;28;20423;-94
2024/01/14 05:54:34;;;;;;;25.10;11.33;;;;;;;;;;5020348;28;20116;-92
2024/01/14 05:57:00;;;;;;;27.20;12.67;;;;;;;;;;5017573;28;20029;-91
2024/01/14 05:59:28;;;;;;;25.40;10.93;;;;;;;;;;5017638;28;20050;-92
2024/01/14 06:01:56;;;;;;;24.17;13.27;;;;;;;;;;5012321;28;20276;-94
2024/01/14 06:04:22;;;;;;;29.50;12.50;;;;;;;;;;5013609;28;20295;-90
2024/01/14 06:06:49;;;;;;;28.73;12.20;;;;;;;;;;5010764;28;20280;-92
2024/01/14 06:09:16;;;;;;;27.87;12.00;;;;;;;;;;5024323;28;20029;-92
2024/01/14 06:11:42;;;;;;;25.53;11.03;;;;;;;;;;5029755;28;20276;-91
2024/01/14 06:14:08;;;;;;;26.70;12.07;;;;;;;;;;5020143;28;20268;-89
2024/01/14 06:16:38;;;;;;;27.00;11.73;;;;;;;;;;5017595;28;20711;-92
2024/01/14 06:19:06;;;;;;;28.80;11.57;;;;;;;;;;4989908;28;20069;-91
2024/01/14 06:21:32;;;;;;;26.47;11.17;;;;;;;;;;4988908;28;20370;-89
2024/01/14 06:24:01;;;;;;;25.33;10.80;;;;;;;;;;4991398;28;20328;-88
2024/01/14 06:26:27;;;;;;;25.30;11.43;;;;;;;;;;5006174;28;20088;-85
2024/01/14 06:28:54;;;;;;;26.07;11.80;;;;;;;;;;4987498;28;20316;-91
2024/01/14 06:31:20;;;;;;;25.47;10.73;;;;;;;;;;4986775;28;20906;-92
2024/01/14 06:33:48;;;;;;;26.30;11.23;;;;;;;;;;4986161;28;20315;-88
2024/01/14 06:36:15;;;;;;;22.47;10.33;;;;;;;;;;4993028;28;20278;-87
2024/01/14 06:38:40;;;;;;;24.33;11.47;;;;;;;;;;5007289;28;20285;-89
2024/01/14 06:41:06;;;;;;;26.03;10.77;;;;;;;;;;5007671;28;20402;-87
2024/01/14 06:43:33;;;;;;;24.20;10.53;;;;;;;;;;4991055;28;20034;-88
2024/01/14 06:46:01;;;;;;;29.20;12.40;;;;;;;;;;4990892;28;20301;-91
2024/01/14 06:48:28;;;;;;;23.17;11.13;;;;;;;;;;5009649;28;20292;-90
2024/01/14 06:50:57;;;;;;;24.37;10.70;;;;;;;;;;5012101;28;20287;-90
2024/01/14 06:53:23;;;;;;;27.30;11.83;;;;;;;;;;5014554;28;22117;-91
2024/01/14 06:55:51;;;;;;;23.43;10.47;;;;;;;;;;5014514;28;20280;-85
2024/01/14 06:58:17;;;;;;;22.20;11.10;;;;;;;;;;5031140;28;20296;-89
2024/01/14 07:00:44;;;;;;;21.73;10.27;;;;;;;;;;5030314;28;20276;-87
2024/01/14 07:03:10;;;;;;;22.33;10.07;;;;;;;;;;5011822;28;20481;-85
2024/01/14 07:05:38;;;;;;;25.10;11.73;;;;;;;;;;5010634;28;20284;-86
2024/01/14 07:08:05;;;;;;;24.00;10.53;;;;;;;;;;5012929;28;20033;-87
2024/01/14 07:10:31;;;;;;;23.47;10.83;;;;;;;;;;5016814;28;20337;-85
2024/01/14 07:12:57;;;;;;;23.80;11.40;;;;;;;;;;5010779;28;20356;-88
2024/01/14 07:15:23;;;;;;;25.27;11.37;;;;;;;;;;5011512;28;20268;-89
2024/01/14 07:17:50;;;;;;;20.93;9.83;;;;;;;;;;5013097;28;20620;-91
2024/01/14 07:20:18;;;;;;;26.27;9.97;;;;;;;;;;5035175;28;20278;-91
2024/01/14 07:22:45;;;;;;;22.23;10.50;;;;;;;;;;5016182;28;20291;-87
2024/01/14 07:25:11;;;;;;;24.13;10.40;;;;;;;;;;5010771;28;20311;-86
2024/01/14 07:27:40;;;;;;;22.63;11.20;;;;;;;;;;5014764;28;20318;-86
2024/01/14 07:30:06;;;;;;;24.00;10.53;;;;;;;;;;5029530;28;20303;-90
2024/01/14 07:32:32;;;;;;;21.83;8.87;;;;;;;;;;5012337;28;20330;-89
2024/01/14 07:34:58;;;;;;;25.43;10.60;;;;;;;;;;5011291;28;20371;-91
2024/01/14 07:37:25;;;;;;;19.40;8.53;;;;;;;;;;5010931;28;20288;-93
2024/01/14 07:39:51;;;;;;;18.67;8.47;;;;;;;;;;5012235;28;20284;-92
2024/01/14 07:42:17;;;;;;;18.17;9.00;;;;;;;;;;5012792;28;20314;-89
2024/01/14 07:44:44;;;;;;;20.27;9.27;;;;;;;;;;5011537;28;20297;-91
2024/01/14 07:47:10;;;;;;;19.60;9.47;;;;;;;;;;5013453;28;20416;-90
2024/01/14 07:49:36;;;;;;;21.27;9.50;;;;;;;;;;5010375;28;20268;-85
2024/01/14 07:52:02;;;;;;;23.60;9.63;;;;;;;;;;5011136;28;20347;-93
2024/01/14 07:54:28;;;;;;;19.33;9.07;;;;;;;;;;5012164;28;20065;-87
2024/01/14 07:56:54;;;;;;;20.80;9.30;;;;;;;;;;5010152;28;20284;-84
2024/01/14 07:59:23;;;;;;;21.07;8.80;;;;;;;;;;5017527;28;20271;-89
2024/01/14 08:01:49;;;;;;;21.77;9.53;;;;;;;;;;5010461;28;20034;-83
2024/01/14 08:04:15;;;;;;;20.73;10.20;;;;;;;;;;5026256;28;20299;-91
2024/01/14 08:06:41;;;;;;;21.60;9.37;;;;;;;;;;5008729;28;20037;-91
2024/01/14 08:09:09;;;;;;;20.30;9.73;;;;;;;;;;5025866;28;20029;-86
2024/01/14 08:11:35;;;;;;;20.53;10.57;;;;;;;;;;5013902;28;20029;-86
2024/01/14 08:14:01;;;;;;;19.83;9.90;;;;;;;;;;5012405;28;20334;-85
2024/01/14 08:16:27;;;;;;;24.00;9.93;;;;;;;;;;5016099;28;20044;-89
2024/01/14 08:18:53;;;;;;;20.07;9.43;;;;;;;;;;5028472;28;20276;-91
2024/01/14 08:21:20;;;;;;;21.17;10.53;;;;;;;;;;5021634;28;20101;-86
2024/01/14 08:23:46;;;;;;;23.27;11.73;;;;;;;;;;5014736;28;20276;-88
2024/01/14 08:26:13;;;;;;;20.17;10.17;;;;;;;;;;5033125;28;20268;-89
2024/01/14 08:28:39;;;;;;;21.10;9.33;;;;;;;;;;5015239;28;20026;-91
2024/01/14 08:31:06;;;;;;;22.53;10.57;;;;;;;;;;5030232;28;20755;-87
2024/01/14 08:33:32;;;;;;;24.27;10.73;;;;;;;;;;5011927;28;20269;-90
2024/01/14 08:35:58;;;;;;;22.13;10.83;;;;;;;;;;5017957;28;20335;-88
2024/01/14 08:38:24;;;;;;;19.23;9.23;;;;;;;;;;5028400;28;20061;-90
2024/01/14 08:40:53;;;;;;;16.70;9.00;;;;;;;;;;5016887;28;20281;-89
2024/01/14 08:43:19;;;;;;;20.00;9.13;;;;;;;;;;5015371;28;20292;-90
2024/01/14 08:45:45;;;;;;;18.13;8.73;;;;;;;;;;5011195;28;20700;-93
2024/01/14 08:48:13;;;;;;;18.00;8.53;;;;;;;;;;5012415;28;20285;-87
2024/01/14 08:50:39;;;;;;;17.63;8.40;;;;;;;;;;5016325;28;20101;-86
2024/01/14 08:53:05;;;;;;;17.60;8.47;;;;;;;;;;5012264;28;20277;-88
2024/01/14 08:55:31;;;;;;;19.73;8.03;;;;;;;;;;5016705;28;20295;-87
2024/01/14 08:57:57;;;;;;;16.30;8.37;;;;;;;;;;5035201;28;20045;-86
2024/01/14 09:00:23;;;;;;;19.93;8.50;;;;;;;;;;5012534;28;20284;-86
2024/01/14 09:02:49;;;;;;;16.90;8.40;;;;;;;;;;5010644;28;20281;-89
2024/01/14 09:05:16;;;;;;;17.17;8.27;;;;;;;;;;5024612;28;20029;-91
2024/01/14 09:07:42;;;;;;;20.80;9.97;;;;;;;;;;5009651;28;20072;-89
2024/01/14 09:10:09;;;;;;;17.23;8.57;;;;;;;;;;5013780;28;20268;-86
2024/01/14 09:12:35;;;;;;;20.87;9.50;;;;;;;;;;5031899;28;20284;-87
2024/01/14 09:15:01;;;;;;;18.87;8.17;;;;;;;;;;5015938;28;20594;-90
2024/01/14 09:17:26;;;;;;;18.13;8.23;;;;;;;;;;5012241;28;20305;-92
2024/01/14 09:19:53;;;;;;;14.73;7.73;;;;;;;;;;5008266;28;20117;-92
2024/01/14 09:22:19;;;;;;;17.30;7.50;;;;;;;;;;5006168;28;20044;-90
2024/01/14 09:24:45;;;;;;;13.60;6.97;;;;;;;;;;5007405;28;20313;-87
2024/01/14 09:27:12;;;;;;;17.80;7.80;;;;;;;;;;5008133;28;20219;-93
2024/01/14 09:29:38;;;;;;;17.97;8.60;;;;;;;;;;5007903;28;20288;-89
2024/01/14 09:32:05;;;;;;;21.47;7.50;;;;;;;;;;5005596;28;20265;-88
2024/01/14 09:34:31;;;;;;;15.43;7.67;;;;;;;;;;5004735;28;20284;-87
2024/01/14 09:36:57;;;;;;;15.67;8.07;;;;;;;;;;4997373;28;20277;-88
2024/01/14 09:39:23;;;;;;;20.03;8.17;;;;;;;;;;4990486;28;20045;-88
2024/01/14 09:42:01;;;;;;;18.33;8.00;;;;;;;;;;4985777;28;20041;-90
2024/01/14 09:44:27;;;;;;;17.23;8.10;;;;;;;;;;4991005;28;20025;-90
2024/01/14 09:46:53;;;;;;;19.67;8.30;;;;;;;;;;5010548;28;20740;-89
2024/01/14 09:49:21;;;;;;;16.07;7.30;;;;;;;;;;5010772;28;20517;-89
2024/01/14 09:51:49;;;;;;;17.17;8.87;;;;;;;;;;5025523;28;20288;-89
2024/01/14 09:54:16;;;;;;;20.73;8.87;;;;;;;;;;4993607;28;20346;-85
2024/01/14 09:56:43;;;;;;;20.00;8.63;;;;;;;;;;5007049;28;20292;-89
2024/01/14 09:59:10;;;;;;;20.57;9.73;;;;;;;;;;5009128;28;20952;-91
2024/01/14 10:01:36;;;;;;;20.03;10.03;;;;;;;;;;5024315;28;20756;-87
2024/01/14 10:04:05;;;;;;;18.00;8.60;;;;;;;;;;5007553;28;20292;-92
2024/01/14 10:06:34;;;;;;;20.70;9.57;;;;;;;;;;5025034;28;20347;-88
2024/01/14 10:09:00;;;;;;;20.13;8.33;;;;;;;;;;5008640;28;20306;-85
2024/01/14 10:11:28;;;;;;;23.97;10.40;;;;;;;;;;5009894;28;20281;-83
2024/01/14 10:13:54;;;;;;;25.20;10.53;;;;;;;;;;5006533;28;20030;-89
2024/01/14 10:16:22;;;;;;;24.30;9.73;;;;;;;;;;5022434;28;20322;-87
2024/01/14 10:18:48;;;;;;;20.30;10.10;;;;;;;;;;5021669;28;20280;-87
2024/01/14 10:21:15;;;;;;;28.57;9.80;;;;;;;;;;5010682;28;20350;-87
2024/01/14 10:23:42;;;;;;;24.47;10.23;;;;;;;;;;5013469;28;20328;-87
2024/01/14 10:26:08;;;;;;;20.50;9.30;;;;;;;;;;5011787;28;20375;-88
2024/01/14 10:28:35;;;;;;;25.40;10.40;;;;;;;;;;5029338;28;20379;-92
2024/01/14 10:31:06;;;;;;;24.63;12.07;;;;;;;;;;5018830;28;20276;-92
2024/01/14 10:33:33;;;;;;;23.00;10.80;;;;;;;;;;5019955;28;20419;-85
2024/01/14 10:35:59;;;;;;;23.07;10.80;;;;;;;;;;5020930;28;20288;-88
2024/01/14 10:38:27;;;;;;;24.80;11.93;;;;;;;;;;5023154;28;20264;-90
2024/01/14 10:40:54;;;;;;;23.57;9.63;;;;;;;;;;5019667;28;20279;-92
2024/01/14 10:43:24;;;;;;;25.70;10.83;;;;;;;;;;5032239;28;20311;-94
2024/01/14 10:45:50;;;;;;;20.80;9.37;;;;;;;;;;5028768;28;20367;-92
2024/01/14 10:48:16;;;;;;;24.93;11.20;;;;;;;;;;5027547;28;20271;-92
2024/01/14 10:50:44;;;;;;;24.57;10.10;;;;;;;;;;5045802;28;20260;-91
2024/01/14 10:53:16;;;;;;;23.57;10.17;;;;;;;;;;5029334;28;20327;-93
2024/01/14 10:55:45;;;;;;;24.03;11.83;;;;;;;;;;5030469;28;20272;-90
2024/01/14 10:58:20;;;;;;;23.00;10.07;;;;;;;;;;5026463;28;20280;-91
2024/01/14 11:00:49;;;;;;;25.17;11.83;;;;;;;;;;5031009;28;20256;-92
2024/01/14 11:03:15;;;;;;;22.83;10.93;;;;;;;;;;5022271;28;20261;-92
2024/01/14 11:05:41;;;;;;;26.37;11.13;;;;;;;;;;5023406;28;20293;-85
2024/01/14 11:08:08;;;;;;;29.67;14.40;;;;;;;;;;5027746;28;20272;-89
2024/01/14 11:10:34;;;;;;;33.97;16.97;;;;;;;;;;5035510;28;20303;-92
2024/01/14 11:13:06;;;;;;;56.07;39.03;;;;;;;;;;5025842;28;20265;-93
2024/01/14 11:15:36;;;;;;;43.80;25.77;;;;;;;;;;5024951;28;20272;-93
2024/01/14 11:18:06;;;;;;;24.77;13.53;;;;;;;;;;5043476;28;20447;-92
2024/01/14 11:20:34;;;;;;;24.83;11.73;;;;;;;;;;5025194;28;20273;-93
2024/01/14 11:23:03;;;;;;;23.17;11.67;;;;;;;;;;5024104;28;20307;-93
2024/01/14 11:25:33;;;;;;;27.50;11.67;;;;;;;;;;5027116;28;20436;-93
2024/01/14 11:28:02;;;;;;;24.60;11.40;;;;;;;;;;5034553;28;20291;-93
2024/01/14 11:30:47;;;;;;;28.00;12.40;;;;;;;;;;5024639;28;20352;-92
2024/01/14 11:33:29;;;;;;;24.47;10.50;;;;;;;;;;5010397;28;20330;-88
2024/01/14 11:35:55;;;;;;;19.87;10.77;;;;;;;;;;5017055;28;20339;-93
2024/01/14 11:38:34;;;;;;;25.20;12.63;;;;;;;;;;5024650;28;20264;-88
2024/01/14 11:41:19;;;;;;;22.57;11.13;;;;;;;;;;5024904;28;20292;-93
2024/01/14 11:43:46;;;;;;;25.87;11.40;;;;;;;;;;5026292;28;20287;-92
2024/01/14 11:46:31;;;;;;;59.67;28.07;;;;;;;;;;5022895;28;20351;-94
2024/01/14 11:48:57;;;;;;;25.23;12.80;;;;;;;;;;5017627;28;20267;-93
2024/01/14 11:51:26;;;;;;;21.73;10.73;;;;;;;;;;5031973;28;20256;-91
2024/01/14 11:53:54;;;;;;;23.10;12.63;;;;;;;;;;5032409;28;20268;-91
2024/01/14 11:56:32;;;;;;;26.50;11.93;;;;;;;;;;5029265;28;20276;-93
2024/01/14 11:58:59;;;;;;;21.77;10.60;;;;;;;;;;5045052;28;20257;-90
2024/01/14 12:01:27;;;;;;;25.10;11.83;;;;;;;;;;5029368;28;20552;-94
2024/01/14 12:04:00;;;;;;;19.43;9.73;;;;;;;;;;5044790;28;20263;-93
2024/01/14 12:06:26;;;;;;;19.27;9.77;;;;;;;;;;5025789;28;20436;-91
2024/01/14 12:09:02;;;;;;;18.77;9.83;;;;;;;;;;5020146;28;20279;-92
2024/01/14 12:11:28;;;;;;;23.10;11.27;;;;;;;;;;5018538;28;20272;-92
2024/01/14 12:13:54;;;;;;;21.30;10.57;;;;;;;;;;5030503;28;20276;-93
2024/01/14 12:16:22;;;;;;;23.43;10.73;;;;;;;;;;5029127;28;20283;-93
2024/01/14 12:18:48;;;;;;;22.23;10.73;;;;;;;;;;5019284;28;20268;-91
2024/01/14 12:21:21;;;;;;;21.30;11.13;;;;;;;;;;5015021;28;20970;-88
2024/01/14 12:23:47;;;;;;;21.27;10.10;;;;;;;;;;5031492;28;20044;-91
2024/01/14 12:26:14;;;;;;;23.30;11.57;;;;;;;;;;5034372;28;20292;-88
2024/01/14 12:28:43;;;;;;;23.80;11.23;;;;;;;;;;5036241;28;20276;-92
2024/01/14 12:31:09;;;;;;;21.60;11.90;;;;;;;;;;5015491;28;20272;-89
2024/01/14 12:33:35;;;;;;;22.77;11.97;;;;;;;;;;5032389;28;20382;-89
2024/01/14 12:36:01;;;;;;;20.33;10.50;;;;;;;;;;5020742;28;20284;-85
2024/01/14 12:38:27;;;;;;;21.83;10.90;;;;;;;;;;5019005;28;20287;-87
2024/01/14 12:40:54;;;;;;;18.10;11.07;;;;;;;;;;5019547;28;20352;-86
2024/01/14 12:43:20;;;;;;;17.00;9.07;;;;;;;;;;5023641;28;20272;-85
2024/01/14 12:45:53;;;;;;;15.43;7.93;;;;;;;;;;5036372;28;20303;-87
2024/01/14 12:48:25;;;;;;;16.40;8.27;;;;;;;;;;5035810;28;20257;-88
2024/01/14 12:50:56;;;;;;;27.98;17.48;;;;;;;;;;5022182;28;20308;-87
2024/01/14 12:53:22;;;;;;;28.37;18.17;;;;;;;;;;5021662;28;20034;-83
2024/01/14 12:55:53;;;;;;;28.63;20.93;;;;;;;;;;5023558;28;20280;-84
2024/01/14 12:58:22;;;;;;;14.30;7.20;;;;;;;;;;5022728;28;20276;-81
2024/01/14 13:00:48;;;;;;;11.23;6.40;;;;;;;;;;5038240;28;20294;-88
2024/01/14 13:03:14;;;;;;;11.43;5.97;;;;;;;;;;5024148;28;20366;-86
2024/01/14 13:05:42;;;;;;;13.67;6.57;;;;;;;;;;5023897;28;20034;-84
2024/01/14 13:08:08;;;;;;;17.73;7.17;;;;;;;;;;5024118;28;20340;-90
2024/01/14 13:10:35;;;;;;;13.73;6.87;;;;;;;;;;5023957;28;20276;-86
2024/01/14 13:13:01;;;;;;;12.27;5.87;;;;;;;;;;5021495;28;20272;-86
2024/01/14 13:15:27;;;;;;;12.13;6.63;;;;;;;;;;5020940;28;20291;-84
2024/01/14 13:17:57;;;;;;;14.13;7.37;;;;;;;;;;5022365;28;20421;-85
2024/01/14 13:20:41;;;;;;;15.03;6.17;;;;;;;;;;5040893;28;20326;-83
2024/01/14 13:23:08;;;;;;;13.93;7.30;;;;;;;;;;5020262;28;20284;-88
2024/01/14 13:25:35;;;;;;;13.47;6.07;;;;;;;;;;5020023;28;20303;-89
2024/01/14 13:28:01;;;;;;;15.00;7.03;;;;;;;;;;5019355;28;20280;-88
2024/01/14 13:30:28;;;;;;;16.07;6.47;;;;;;;;;;5035962;28;20319;-87
2024/01/14 13:32:56;;;;;;;11.27;6.20;;;;;;;;;;5034162;28;20300;-84
2024/01/14 13:35:22;;;;;;;17.57;7.30;;;;;;;;;;5016458;28;20277;-88
2024/01/14 13:37:48;;;;;;;14.93;6.53;;;;;;;;;;5031925;28;20442;-90
2024/01/14 13:40:16;;;;;;;14.23;7.50;;;;;;;;;;5019866;28;20287;-87
2024/01/14 13:42:44;;;;;;;15.10;7.53;;;;;;;;;;5037418;28;20284;-87
2024/01/14 13:45:10;;;;;;;12.93;6.60;;;;;;;;;;5021686;28;20720;-81
2024/01/14 13:47:37;;;;;;;14.37;6.97;;;;;;;;;;5039604;28;20272;-83
2024/01/14 13:50:03;;;;;;;14.83;7.30;;;;;;;;;;5025199;28;20276;-83
2024/01/14 13:52:30;;;;;;;15.20;6.23;;;;;;;;;;5017639;28;22168;-89
2024/01/14 13:54:56;;;;;;;14.43;7.20;;;;;;;;;;5015895;28;20269;-88
2024/01/14 13:57:22;;;;;;;12.57;6.73;;;;;;;;;;5014882;28;20405;-90
2024/01/14 13:59:48;;;;;;;14.57;6.83;;;;;;;;;;5013771;28;20308;-90
2024/01/14 14:02:17;;;;;;;13.50;6.37;;;;;;;;;;5013327;28;20288;-88
2024/01/14 14:04:43;;;;;;;12.50;6.60;;;;;;;;;;5016334;28;20284;-83
2024/01/14 14:07:09;;;;;;;14.53;6.83;;;;;;;;;;5034854;28;20307;-88
2024/01/14 14:09:35;;;;;;;13.07;6.03;;;;;;;;;;5016580;28;20365;-92
2024/01/14 14:12:01;;;;;;;12.83;6.47;;;;;;;;;;5016212;28;20268;-88
2024/01/14 14:14:27;;;;;;;14.57;6.17;;;;;;;;;;5015751;28;20346;-89
2024/01/14 14:16:53;;;;;;;9.73;5.63;;;;;;;;;;5016843;28;20295;-88
2024/01/14 14:19:19;;;;;;;13.03;5.83;;;;;;;;;;5010896;28;20594;-90